Time;durP1;ratioP1;P1;durP2;ratioP2;P2;SDS_P1;SDS_P2;PMS_P1;PMS_P2;Temp;Humidity;BMP_temperature;BMP_pressure;BME280_temperature;BME280_humidity;BME280_pressure;Samples;Min_cycle;Max_cycle;Signal;HPM_P1;HPM_P2
2023/01/08 00:01:16;;;;;;;38.78;22.73;;;;;;;;;;4954684;28;20124;-63
2023/01/08 00:03:44;;;;;;;37.95;22.15;;;;;;;;;;4954574;28;20135;-63
2023/01/08 00:06:13;;;;;;;35.03;21.70;;;;;;;;;;4954597;28;20055;-63
2023/01/08 00:08:41;;;;;;;35.75;20.67;;;;;;;;;;4954611;28;20085;-63
2023/01/08 00:11:09;;;;;;;34.58;21.38;;;;;;;;;;4954487;28;20058;-63
2023/01/08 00:13:37;;;;;;;38.75;21.45;;;;;;;;;;4954649;28;20122;-63
2023/01/08 00:16:05;;;;;;;37.10;21.40;;;;;;;;;;4954783;28;20043;-63
2023/01/08 00:18:32;;;;;;;36.92;21.63;;;;;;;;;;4954604;28;20413;-63
2023/01/08 00:21:01;;;;;;;39.40;22.40;;;;;;;;;;4954492;28;20082;-63
2023/01/08 00:23:28;;;;;;;39.25;22.45;;;;;;;;;;4954473;28;20090;-63
2023/01/08 00:25:56;;;;;;;35.38;21.60;;;;;;;;;;4954415;28;20039;-63
2023/01/08 00:28:23;;;;;;;39.00;22.27;;;;;;;;;;4954304;28;20047;-63
2023/01/08 00:30:51;;;;;;;34.90;21.27;;;;;;;;;;4954245;28;20046;-63
2023/01/08 00:33:18;;;;;;;42.17;23.52;;;;;;;;;;4955238;28;20055;-63
2023/01/08 00:35:46;;;;;;;40.17;21.98;;;;;;;;;;4941341;29;20418;-63
2023/01/08 00:38:13;;;;;;;42.10;22.25;;;;;;;;;;4958115;28;20063;-63
2023/01/08 00:40:41;;;;;;;39.47;22.42;;;;;;;;;;4958244;28;20051;-63
2023/01/08 00:43:08;;;;;;;37.40;22.70;;;;;;;;;;4957019;29;20075;-63
2023/01/08 00:45:36;;;;;;;41.33;22.98;;;;;;;;;;4957966;28;20109;-63
2023/01/08 00:48:03;;;;;;;41.30;23.73;;;;;;;;;;4956911;29;20058;-63
2023/01/08 00:50:31;;;;;;;41.92;23.40;;;;;;;;;;4958010;28;20506;-63
2023/01/08 00:52:58;;;;;;;42.90;23.20;;;;;;;;;;4956776;29;20085;-63
2023/01/08 00:55:26;;;;;;;44.35;24.48;;;;;;;;;;4957912;28;20118;-63
2023/01/08 00:57:53;;;;;;;43.00;24.17;;;;;;;;;;4957752;28;20054;-63
2023/01/08 01:00:21;;;;;;;43.65;24.10;;;;;;;;;;4957829;28;20114;-63
2023/01/08 01:02:48;;;;;;;43.17;24.15;;;;;;;;;;4957838;28;20126;-63
2023/01/08 01:05:16;;;;;;;44.65;24.10;;;;;;;;;;4957659;29;20053;-63
2023/01/08 01:07:44;;;;;;;43.15;23.80;;;;;;;;;;4958006;28;20118;-63
2023/01/08 01:10:13;;;;;;;45.58;24.42;;;;;;;;;;4957581;28;20094;-63
2023/01/08 01:12:40;;;;;;;43.63;23.60;;;;;;;;;;4957572;28;20070;-63
2023/01/08 01:15:09;;;;;;;42.70;24.80;;;;;;;;;;4957458;28;20043;-63
2023/01/08 01:17:40;;;;;;;46.95;24.80;;;;;;;;;;4957730;28;20122;-63
2023/01/08 01:20:08;;;;;;;42.17;24.83;;;;;;;;;;4956177;29;20050;-63
2023/01/08 01:22:36;;;;;;;43.20;24.80;;;;;;;;;;4957339;28;20045;-63
2023/01/08 01:25:04;;;;;;;42.20;24.15;;;;;;;;;;4957291;28;20122;-63
2023/01/08 01:27:32;;;;;;;44.95;24.98;;;;;;;;;;4956205;29;20112;-63
2023/01/08 01:29:59;;;;;;;42.97;24.58;;;;;;;;;;4957115;28;20505;-63
2023/01/08 01:32:27;;;;;;;42.65;24.00;;;;;;;;;;4957165;28;20056;-63
2023/01/08 01:34:54;;;;;;;46.85;24.80;;;;;;;;;;4957236;28;20097;-63
2023/01/08 01:37:22;;;;;;;41.03;24.75;;;;;;;;;;4957287;28;20054;-63
2023/01/08 01:39:49;;;;;;;44.75;26.05;;;;;;;;;;4957423;28;20047;-63
2023/01/08 01:45:12;;;;;;;45.30;25.80;;;;;;;;;;4955288;28;20048;-63
2023/01/08 01:47:40;;;;;;;47.83;25.88;;;;;;;;;;4956965;28;20057;-63
2023/01/08 01:50:10;;;;;;;52.60;26.88;;;;;;;;;;4957305;28;20047;-63
2023/01/08 01:52:45;;;;;;;51.30;28.15;;;;;;;;;;4956822;28;20048;-63
2023/01/08 01:55:13;;;;;;;46.13;26.88;;;;;;;;;;4956912;28;20047;-63
2023/01/08 01:57:44;;;;;;;45.10;26.40;;;;;;;;;;4956835;28;20044;-63
2023/01/08 02:00:12;;;;;;;54.13;28.55;;;;;;;;;;4956662;28;20523;-63
2023/01/08 02:02:40;;;;;;;48.65;26.80;;;;;;;;;;4956808;28;20501;-63
2023/01/08 02:05:08;;;;;;;48.20;27.02;;;;;;;;;;4956623;28;20047;-63
2023/01/08 02:07:41;;;;;;;48.95;27.65;;;;;;;;;;4956672;28;20070;-63
2023/01/08 02:10:11;;;;;;;48.60;27.70;;;;;;;;;;4956887;28;20043;-63
2023/01/08 02:12:41;;;;;;;49.42;27.65;;;;;;;;;;4956573;28;20045;-63
2023/01/08 02:15:13;;;;;;;52.60;28.02;;;;;;;;;;4955199;29;20055;-63
2023/01/08 02:17:44;;;;;;;49.05;28.40;;;;;;;;;;4955451;29;20418;-63
2023/01/08 02:20:14;;;;;;;44.60;26.50;;;;;;;;;;4955257;29;20472;-63
2023/01/08 02:23:05;;;;;;;48.00;28.90;;;;;;;;;;4956330;28;20082;-63
2023/01/08 02:25:51;;;;;;;44.42;27.02;;;;;;;;;;4956213;28;20039;-63
2023/01/08 02:28:18;;;;;;;51.13;28.02;;;;;;;;;;4956216;28;20047;-63
2023/01/08 02:30:47;;;;;;;45.60;28.30;;;;;;;;;;4956398;28;20130;-63
2023/01/08 02:33:14;;;;;;;48.60;28.30;;;;;;;;;;4956107;28;20055;-63
2023/01/08 02:35:45;;;;;;;54.65;30.25;;;;;;;;;;4954813;29;20039;-63
2023/01/08 02:38:14;;;;;;;49.53;29.25;;;;;;;;;;4956018;28;20054;-63
2023/01/08 02:40:59;;;;;;;58.38;32.58;;;;;;;;;;4955978;28;20039;-63
2023/01/08 02:43:30;;;;;;;57.75;32.10;;;;;;;;;;4954538;29;20051;-63
2023/01/08 02:46:01;;;;;;;61.95;32.97;;;;;;;;;;4955848;28;20517;-63
2023/01/08 02:48:39;;;;;;;61.55;33.22;;;;;;;;;;4954537;28;20047;-63
2023/01/08 02:51:23;;;;;;;63.17;35.03;;;;;;;;;;4954513;29;20047;-63
2023/01/08 02:53:54;;;;;;;63.70;35.57;;;;;;;;;;4955754;28;20047;-63
2023/01/08 02:56:23;;;;;;;66.85;36.25;;;;;;;;;;4955098;28;20067;-63
2023/01/08 02:58:52;;;;;;;62.28;36.92;;;;;;;;;;4955710;28;20147;-63
2023/01/08 03:01:21;;;;;;;67.90;37.67;;;;;;;;;;4954365;29;20499;-63
2023/01/08 03:03:51;;;;;;;71.13;38.05;;;;;;;;;;4955412;28;20118;-63
2023/01/08 03:06:19;;;;;;;67.45;37.75;;;;;;;;;;4955381;28;20549;-63
2023/01/08 03:08:48;;;;;;;61.85;37.15;;;;;;;;;;4955396;28;20458;-63
2023/01/08 03:11:18;;;;;;;67.38;39.03;;;;;;;;;;4955471;28;20510;-63
2023/01/08 03:13:45;;;;;;;65.95;37.70;;;;;;;;;;4955210;28;20054;-63
2023/01/08 03:16:31;;;;;;;65.93;38.13;;;;;;;;;;4955440;28;20114;-63
2023/01/08 03:19:02;;;;;;;69.05;36.47;;;;;;;;;;4954049;28;20414;-63
2023/01/08 03:21:31;;;;;;;68.55;37.60;;;;;;;;;;4955396;28;20051;-63
2023/01/08 03:23:59;;;;;;;69.63;37.45;;;;;;;;;;4955165;28;20043;-63
2023/01/08 03:26:27;;;;;;;71.05;36.67;;;;;;;;;;4955185;28;20051;-63
2023/01/08 03:28:56;;;;;;;71.00;38.13;;;;;;;;;;4954971;28;20090;-63
2023/01/08 03:31:24;;;;;;;65.90;36.67;;;;;;;;;;4955094;28;20039;-63
2023/01/08 03:33:52;;;;;;;64.82;36.40;;;;;;;;;;4954919;28;20450;-63
2023/01/08 03:36:21;;;;;;;63.80;37.17;;;;;;;;;;4954981;28;20070;-63
2023/01/08 03:38:56;;;;;;;63.97;36.35;;;;;;;;;;4953750;28;20055;-63
2023/01/08 03:41:24;;;;;;;63.92;37.47;;;;;;;;;;4953711;29;20102;-63
2023/01/08 03:43:51;;;;;;;64.18;37.15;;;;;;;;;;4954920;28;20040;-63
2023/01/08 03:46:21;;;;;;;69.13;38.22;;;;;;;;;;4954787;28;20055;-63
2023/01/08 03:48:49;;;;;;;63.80;36.10;;;;;;;;;;4954871;28;20046;-63
2023/01/08 03:51:17;;;;;;;70.20;36.92;;;;;;;;;;4954931;28;20047;-63
2023/01/08 03:53:46;;;;;;;68.28;38.15;;;;;;;;;;4954347;28;20130;-63
2023/01/08 03:56:13;;;;;;;73.32;38.50;;;;;;;;;;4954953;28;20042;-63
2023/01/08 03:58:40;;;;;;;66.05;38.10;;;;;;;;;;4954734;28;20073;-63
2023/01/08 04:01:08;;;;;;;62.25;36.15;;;;;;;;;;4954782;28;20042;-63
2023/01/08 04:03:35;;;;;;;67.90;38.05;;;;;;;;;;4954593;28;20047;-63
2023/01/08 04:06:03;;;;;;;66.90;37.85;;;;;;;;;;4954746;28;20043;-63
2023/01/08 04:08:30;;;;;;;67.80;38.25;;;;;;;;;;4953980;28;20093;-63
2023/01/08 04:10:58;;;;;;;71.10;38.90;;;;;;;;;;4954772;28;20402;-63
2023/01/08 04:13:25;;;;;;;68.93;38.78;;;;;;;;;;4953246;29;20481;-63
2023/01/08 04:15:52;;;;;;;69.80;40.15;;;;;;;;;;4954364;28;20043;-63
2023/01/08 04:18:20;;;;;;;70.28;39.67;;;;;;;;;;4954559;28;20081;-63
2023/01/08 04:20:48;;;;;;;69.85;39.22;;;;;;;;;;4954307;28;20047;-64
2023/01/08 04:23:15;;;;;;;68.55;39.08;;;;;;;;;;4954716;28;20040;-63
2023/01/08 04:25:43;;;;;;;67.72;39.50;;;;;;;;;;4954344;28;20050;-63
2023/01/08 04:28:10;;;;;;;68.55;39.58;;;;;;;;;;4954610;28;20070;-63
2023/01/08 04:30:37;;;;;;;72.53;38.78;;;;;;;;;;4953138;28;20136;-64
2023/01/08 04:33:05;;;;;;;83.57;40.42;;;;;;;;;;4954100;28;20047;-63
2023/01/08 04:35:32;;;;;;;69.78;38.45;;;;;;;;;;4953148;28;20047;-63
2023/01/08 04:38:00;;;;;;;70.35;39.15;;;;;;;;;;4954194;28;20071;-63
2023/01/08 04:40:27;;;;;;;68.13;38.03;;;;;;;;;;4954212;28;20065;-63
2023/01/08 04:42:55;;;;;;;66.03;38.53;;;;;;;;;;4954362;28;20049;-63
2023/01/08 04:45:22;;;;;;;65.13;38.10;;;;;;;;;;4953978;28;20597;-63
2023/01/08 04:47:59;;;;;;;69.82;38.97;;;;;;;;;;4954298;28;20050;-63
2023/01/08 04:50:27;;;;;;;69.10;39.08;;;;;;;;;;4954220;28;20039;-63
2023/01/08 04:52:54;;;;;;;71.68;39.55;;;;;;;;;;4954105;28;20049;-63
2023/01/08 04:55:22;;;;;;;75.75;40.55;;;;;;;;;;4954098;28;20513;-63
2023/01/08 04:57:49;;;;;;;67.25;37.60;;;;;;;;;;4954149;28;20075;-63
2023/01/08 05:00:17;;;;;;;68.28;37.00;;;;;;;;;;4953923;28;20047;-63
2023/01/08 05:02:44;;;;;;;64.97;36.33;;;;;;;;;;4954124;28;20122;-63
2023/01/08 05:05:12;;;;;;;65.28;37.55;;;;;;;;;;4954142;28;20047;-63
2023/01/08 05:07:40;;;;;;;64.15;37.03;;;;;;;;;;4954027;28;20070;-63
2023/01/08 05:10:08;;;;;;;66.63;37.75;;;;;;;;;;4954112;28;20055;-64
2023/01/08 05:12:35;;;;;;;68.75;36.78;;;;;;;;;;4954041;28;20057;-63
2023/01/08 05:15:02;;;;;;;71.40;38.50;;;;;;;;;;4953228;29;20053;-63
2023/01/08 05:17:30;;;;;;;65.90;38.30;;;;;;;;;;4954019;28;20522;-63
2023/01/08 05:19:57;;;;;;;71.43;38.55;;;;;;;;;;4955639;28;20051;-63
2023/01/08 05:22:25;;;;;;;66.82;37.83;;;;;;;;;;4957861;28;20069;-63
2023/01/08 05:24:52;;;;;;;65.22;36.13;;;;;;;;;;4957394;28;20042;-63
2023/01/08 05:27:19;;;;;;;66.70;37.75;;;;;;;;;;4957606;28;20063;-63
2023/01/08 05:29:47;;;;;;;63.83;36.65;;;;;;;;;;4957337;28;20039;-63
2023/01/08 05:32:16;;;;;;;69.72;36.65;;;;;;;;;;4957283;28;20114;-64
2023/01/08 05:34:44;;;;;;;63.80;36.63;;;;;;;;;;4957405;28;20401;-63
2023/01/08 05:37:12;;;;;;;60.25;34.30;;;;;;;;;;4957278;28;20110;-63
2023/01/08 05:39:39;;;;;;;63.58;35.05;;;;;;;;;;4956066;29;20047;-63
2023/01/08 05:42:06;;;;;;;64.50;36.38;;;;;;;;;;4957167;28;20071;-63
2023/01/08 05:44:34;;;;;;;60.47;33.92;;;;;;;;;;4955697;29;20046;-63
2023/01/08 05:47:02;;;;;;;68.47;35.85;;;;;;;;;;4956850;28;20106;-63
2023/01/08 05:49:29;;;;;;;63.28;37.38;;;;;;;;;;4956916;28;20066;-63
2023/01/08 05:51:57;;;;;;;65.82;35.55;;;;;;;;;;4956864;28;20126;-63
2023/01/08 05:54:24;;;;;;;65.10;33.38;;;;;;;;;;4956534;28;20050;-63
2023/01/08 05:56:52;;;;;;;56.17;32.95;;;;;;;;;;4956955;28;20115;-63
2023/01/08 05:59:19;;;;;;;62.38;33.78;;;;;;;;;;4956759;28;20051;-63
2023/01/08 06:01:47;;;;;;;59.85;32.65;;;;;;;;;;4955231;29;20067;-63
2023/01/08 06:04:14;;;;;;;57.95;32.78;;;;;;;;;;4955345;28;20054;-64
2023/01/08 06:06:42;;;;;;;55.47;32.08;;;;;;;;;;4956421;28;20047;-63
2023/01/08 06:09:09;;;;;;;56.22;32.05;;;;;;;;;;4955402;29;20058;-63
2023/01/08 06:11:36;;;;;;;56.20;31.20;;;;;;;;;;4956573;28;20039;-63
2023/01/08 06:14:04;;;;;;;52.75;30.50;;;;;;;;;;4956538;28;20048;-63
2023/01/08 06:16:32;;;;;;;58.13;31.40;;;;;;;;;;4955269;29;20599;-63
2023/01/08 06:19:01;;;;;;;57.15;31.73;;;;;;;;;;4956556;28;20497;-63
2023/01/08 06:21:28;;;;;;;52.72;31.17;;;;;;;;;;4955330;29;20043;-63
2023/01/08 06:23:56;;;;;;;60.65;32.38;;;;;;;;;;4955502;28;20481;-63
2023/01/08 06:26:23;;;;;;;62.42;31.75;;;;;;;;;;4956166;28;20122;-63
2023/01/08 06:28:51;;;;;;;56.22;30.50;;;;;;;;;;4959455;28;20040;-63
2023/01/08 06:31:18;;;;;;;56.63;30.80;;;;;;;;;;4956303;28;20039;-63
2023/01/08 06:33:45;;;;;;;54.58;30.17;;;;;;;;;;4956236;28;20134;-62
2023/01/08 06:36:13;;;;;;;54.92;29.42;;;;;;;;;;4956125;28;20047;-62
2023/01/08 06:38:40;;;;;;;53.78;30.10;;;;;;;;;;4956085;28;20485;-63
2023/01/08 06:41:09;;;;;;;49.65;27.25;;;;;;;;;;4960829;28;20049;-63
2023/01/08 06:43:38;;;;;;;52.78;29.70;;;;;;;;;;4955929;28;20520;-64
2023/01/08 06:46:07;;;;;;;53.60;31.35;;;;;;;;;;4969883;28;20180;-65
2023/01/08 06:48:35;;;;;;;50.28;29.55;;;;;;;;;;4975092;28;20464;-64
2023/01/08 06:51:03;;;;;;;54.65;30.05;;;;;;;;;;4975135;28;20070;-64
2023/01/08 06:53:30;;;;;;;48.20;29.05;;;;;;;;;;4975009;28;20078;-64
2023/01/08 06:55:58;;;;;;;54.88;29.55;;;;;;;;;;4974398;28;20509;-63
2023/01/08 06:58:26;;;;;;;52.53;30.15;;;;;;;;;;4955332;28;20055;-64
2023/01/08 07:00:54;;;;;;;53.10;30.40;;;;;;;;;;4955525;28;20109;-64
2023/01/08 07:03:22;;;;;;;53.17;28.83;;;;;;;;;;4955536;28;20070;-65
2023/01/08 07:05:49;;;;;;;59.08;30.65;;;;;;;;;;4955555;28;20105;-65
2023/01/08 07:08:17;;;;;;;50.45;27.90;;;;;;;;;;4955594;28;20137;-65
2023/01/08 07:10:46;;;;;;;52.88;28.63;;;;;;;;;;4955402;28;20043;-66
2023/01/08 07:13:13;;;;;;;48.33;26.98;;;;;;;;;;4955297;28;20047;-65
2023/01/08 07:15:41;;;;;;;49.28;28.70;;;;;;;;;;4955394;28;20075;-66
2023/01/08 07:18:10;;;;;;;46.55;27.90;;;;;;;;;;4954241;29;20393;-66
2023/01/08 07:20:38;;;;;;;49.75;28.25;;;;;;;;;;4955226;28;20043;-65
2023/01/08 07:23:07;;;;;;;46.90;27.33;;;;;;;;;;4955214;28;20493;-67
2023/01/08 07:25:34;;;;;;;47.58;26.95;;;;;;;;;;4969600;28;20497;-65
2023/01/08 07:28:02;;;;;;;48.72;27.63;;;;;;;;;;4974505;28;20058;-65
2023/01/08 07:30:29;;;;;;;42.40;25.98;;;;;;;;;;4974421;28;20043;-66
2023/01/08 07:32:58;;;;;;;42.22;26.08;;;;;;;;;;4974171;28;20509;-64
2023/01/08 07:35:26;;;;;;;45.50;25.63;;;;;;;;;;4962385;28;20039;-64
2023/01/08 07:37:53;;;;;;;44.45;26.60;;;;;;;;;;4955014;28;20043;-68
2023/01/08 07:40:21;;;;;;;45.08;28.20;;;;;;;;;;4955092;28;20043;-65
2023/01/08 07:42:49;;;;;;;44.85;26.88;;;;;;;;;;4954607;28;20118;-66
2023/01/08 07:45:16;;;;;;;41.53;26.45;;;;;;;;;;4954899;28;20099;-66
2023/01/08 07:47:43;;;;;;;40.78;25.75;;;;;;;;;;4955019;28;20122;-66
2023/01/08 07:50:11;;;;;;;43.08;26.00;;;;;;;;;;4954799;28;20051;-67
2023/01/08 07:52:38;;;;;;;42.50;25.95;;;;;;;;;;4952872;29;20069;-67
2023/01/08 07:55:06;;;;;;;40.28;25.52;;;;;;;;;;4953410;28;20616;-67
2023/01/08 07:57:33;;;;;;;70.57;37.22;;;;;;;;;;4953304;29;20063;-67
2023/01/08 08:00:00;;;;;;;45.50;27.92;;;;;;;;;;4952967;28;20050;-67
2023/01/08 08:02:28;;;;;;;42.15;26.45;;;;;;;;;;4948506;28;20067;-67
2023/01/08 08:04:55;;;;;;;41.47;26.00;;;;;;;;;;4954225;28;20043;-67
2023/01/08 08:07:23;;;;;;;46.50;27.60;;;;;;;;;;4941428;28;20058;-66
2023/01/08 08:09:50;;;;;;;41.42;26.08;;;;;;;;;;4954359;28;20039;-67
2023/01/08 08:12:18;;;;;;;40.42;24.92;;;;;;;;;;4954273;28;20371;-67
2023/01/08 08:14:45;;;;;;;44.67;26.40;;;;;;;;;;4943584;28;20059;-66
2023/01/08 08:17:13;;;;;;;38.40;25.55;;;;;;;;;;4951524;29;20522;-67
2023/01/08 08:19:42;;;;;;;40.50;24.90;;;;;;;;;;4953167;29;20043;-66
2023/01/08 08:22:10;;;;;;;41.35;24.30;;;;;;;;;;4952925;28;20078;-66
2023/01/08 08:24:37;;;;;;;42.83;24.52;;;;;;;;;;4953288;29;20051;-65
2023/01/08 08:27:05;;;;;;;43.53;23.83;;;;;;;;;;4954099;28;20114;-66
2023/01/08 08:29:33;;;;;;;41.78;24.55;;;;;;;;;;4954088;28;20127;-65
2023/01/08 08:32:00;;;;;;;39.83;25.85;;;;;;;;;;4954078;28;20486;-66
2023/01/08 08:34:28;;;;;;;41.22;26.98;;;;;;;;;;4953788;28;20039;-66
2023/01/08 08:36:56;;;;;;;38.72;22.63;;;;;;;;;;4954142;28;20091;-66
2023/01/08 08:39:23;;;;;;;38.47;24.27;;;;;;;;;;4953975;28;20142;-65
2023/01/08 08:41:52;;;;;;;40.97;25.30;;;;;;;;;;4954005;28;20086;-66
2023/01/08 08:44:20;;;;;;;35.63;23.25;;;;;;;;;;4953859;28;20071;-65
2023/01/08 08:46:47;;;;;;;43.85;27.05;;;;;;;;;;4953858;28;20063;-66
2023/01/08 08:49:15;;;;;;;33.25;22.75;;;;;;;;;;4954020;28;20074;-66
2023/01/08 08:51:42;;;;;;;37.10;23.70;;;;;;;;;;4954114;28;20036;-67
2023/01/08 08:54:10;;;;;;;34.42;22.15;;;;;;;;;;4954476;28;20086;-67
2023/01/08 08:56:38;;;;;;;33.50;22.80;;;;;;;;;;4957533;28;20050;-66
2023/01/08 08:59:05;;;;;;;30.90;20.48;;;;;;;;;;4957708;28;20126;-67
2023/01/08 09:01:32;;;;;;;31.33;18.75;;;;;;;;;;4956321;29;20035;-67
2023/01/08 09:04:00;;;;;;;29.05;19.30;;;;;;;;;;4957610;28;20490;-66
2023/01/08 09:06:28;;;;;;;28.30;19.35;;;;;;;;;;4956086;28;20043;-66
2023/01/08 09:08:55;;;;;;;29.15;19.15;;;;;;;;;;4953394;28;20134;-66
2023/01/08 09:11:22;;;;;;;29.35;19.38;;;;;;;;;;4951405;28;20052;-66
2023/01/08 09:13:50;;;;;;;29.55;20.52;;;;;;;;;;4938083;29;20040;-66
2023/01/08 09:16:17;;;;;;;27.50;18.10;;;;;;;;;;4938081;29;20082;-66
2023/01/08 09:18:45;;;;;;;28.95;18.83;;;;;;;;;;4938119;29;20043;-66
2023/01/08 09:21:13;;;;;;;28.08;17.70;;;;;;;;;;4951231;29;20043;-66
2023/01/08 09:23:40;;;;;;;27.50;18.30;;;;;;;;;;4957082;28;20564;-66
2023/01/08 09:26:08;;;;;;;27.13;18.90;;;;;;;;;;4957262;28;20047;-65
2023/01/08 09:28:36;;;;;;;29.60;18.20;;;;;;;;;;4957187;28;20047;-65
2023/01/08 09:31:04;;;;;;;27.35;18.63;;;;;;;;;;4957189;28;20065;-67
2023/01/08 09:33:32;;;;;;;30.70;19.35;;;;;;;;;;4956954;28;20394;-67
2023/01/08 09:36:00;;;;;;;34.40;20.98;;;;;;;;;;4957128;28;20111;-67
2023/01/08 09:38:27;;;;;;;25.58;17.98;;;;;;;;;;4955721;29;20043;-67
2023/01/08 09:40:58;;;;;;;27.27;17.23;;;;;;;;;;4955766;29;20466;-67
2023/01/08 09:43:28;;;;;;;24.83;16.67;;;;;;;;;;4956698;28;20047;-67
2023/01/08 09:45:57;;;;;;;29.15;17.92;;;;;;;;;;4956268;28;20058;-67
2023/01/08 09:48:27;;;;;;;28.35;18.08;;;;;;;;;;4954432;28;20420;-67
2023/01/08 09:50:55;;;;;;;26.92;17.70;;;;;;;;;;4948228;29;20036;-67
2023/01/08 09:53:24;;;;;;;24.02;15.88;;;;;;;;;;4947663;29;20450;-67
2023/01/08 09:56:01;;;;;;;22.60;16.58;;;;;;;;;;4938920;28;20036;-67
2023/01/08 09:58:38;;;;;;;25.77;15.77;;;;;;;;;;4937255;29;20055;-67
2023/01/08 10:01:06;;;;;;;24.63;15.60;;;;;;;;;;4950376;29;20047;-67
2023/01/08 10:03:42;;;;;;;22.65;14.88;;;;;;;;;;4952284;28;20413;-67
2023/01/08 10:06:10;;;;;;;20.73;14.88;;;;;;;;;;4955252;28;20393;-68
2023/01/08 10:08:38;;;;;;;22.73;15.70;;;;;;;;;;4954614;29;20035;-69
2023/01/08 10:11:06;;;;;;;27.60;18.77;;;;;;;;;;4954928;28;20043;-68
2023/01/08 10:13:34;;;;;;;20.42;14.50;;;;;;;;;;4950964;29;20067;-69
2023/01/08 10:16:06;;;;;;;24.75;16.17;;;;;;;;;;4953022;28;20047;-67
2023/01/08 10:18:34;;;;;;;20.95;15.30;;;;;;;;;;4936627;28;20393;-69
2023/01/08 10:21:02;;;;;;;23.75;16.38;;;;;;;;;;4954815;29;20047;-69
2023/01/08 10:23:30;;;;;;;29.10;18.52;;;;;;;;;;4955994;28;20039;-69
2023/01/08 10:26:01;;;;;;;20.95;14.80;;;;;;;;;;4956164;28;20039;-69
2023/01/08 10:28:30;;;;;;;21.80;15.25;;;;;;;;;;4955984;28;20071;-69
2023/01/08 10:31:06;;;;;;;23.52;16.23;;;;;;;;;;4953597;29;20134;-67
2023/01/08 10:33:44;;;;;;;23.73;16.30;;;;;;;;;;4939451;28;20066;-69
2023/01/08 10:36:17;;;;;;;21.73;15.88;;;;;;;;;;4947710;29;20122;-75
2023/01/08 10:39:00;;;;;;;24.10;15.68;;;;;;;;;;4955304;28;20047;-66
2023/01/08 10:41:28;;;;;;;24.75;15.90;;;;;;;;;;4953759;28;20541;-65
2023/01/08 10:44:02;;;;;;;21.02;14.15;;;;;;;;;;4955258;28;20457;-65
2023/01/08 10:46:30;;;;;;;22.58;14.85;;;;;;;;;;4970872;28;20054;-65
2023/01/08 10:48:59;;;;;;;24.40;16.70;;;;;;;;;;4975122;28;20073;-66
2023/01/08 10:51:28;;;;;;;23.67;15.48;;;;;;;;;;4973723;28;20038;-66
2023/01/08 10:53:59;;;;;;;25.60;15.93;;;;;;;;;;4975341;28;20117;-66
2023/01/08 10:56:31;;;;;;;24.05;14.75;;;;;;;;;;4975457;28;20130;-66
2023/01/08 10:58:58;;;;;;;57.50;20.98;;;;;;;;;;4974872;28;20046;-66
2023/01/08 11:01:27;;;;;;;25.95;16.25;;;;;;;;;;4974549;28;20508;-66
2023/01/08 11:04:05;;;;;;;21.10;14.27;;;;;;;;;;4975204;28;20051;-66
2023/01/08 11:06:36;;;;;;;26.02;15.05;;;;;;;;;;4975004;28;20275;-66
2023/01/08 11:09:13;;;;;;;20.58;14.07;;;;;;;;;;4974951;28;20046;-67
2023/01/08 11:11:41;;;;;;;39.72;18.20;;;;;;;;;;4975105;28;20445;-66
2023/01/08 11:14:17;;;;;;;19.65;13.90;;;;;;;;;;4974927;28;20509;-67
2023/01/08 11:16:45;;;;;;;20.60;14.25;;;;;;;;;;4974219;28;20074;-67
2023/01/08 11:19:17;;;;;;;33.42;18.48;;;;;;;;;;4972697;28;20122;-67
2023/01/08 11:21:55;;;;;;;24.20;14.15;;;;;;;;;;4973864;28;20039;-66
2023/01/08 11:24:27;;;;;;;89.75;55.55;;;;;;;;;;4974178;28;20054;-66
2023/01/08 11:27:13;;;;;;;86.38;52.33;;;;;;;;;;4974426;28;20110;-66
2023/01/08 11:29:41;;;;;;;22.92;15.13;;;;;;;;;;4974764;28;20070;-65
2023/01/08 11:32:25;;;;;;;105.50;68.53;;;;;;;;;;4974500;28;20130;-66
2023/01/08 11:34:56;;;;;;;65.78;43.08;;;;;;;;;;4974494;28;20065;-66
2023/01/08 11:37:25;;;;;;;114.80;70.70;;;;;;;;;;4975305;28;20125;-65
2023/01/08 11:39:53;;;;;;;26.10;17.92;;;;;;;;;;4975009;28;20043;-67
2023/01/08 11:42:29;;;;;;;22.27;15.13;;;;;;;;;;4974986;28;20050;-66
2023/01/08 11:45:12;;;;;;;23.98;15.77;;;;;;;;;;4974095;28;20061;-66
2023/01/08 11:47:39;;;;;;;22.45;13.95;;;;;;;;;;4974293;28;20069;-66
2023/01/08 11:50:18;;;;;;;20.63;12.70;;;;;;;;;;4974435;28;20073;-66
2023/01/08 11:52:46;;;;;;;21.60;14.32;;;;;;;;;;4974289;28;20034;-66
2023/01/08 11:55:13;;;;;;;19.38;12.80;;;;;;;;;;4974086;28;20133;-66
2023/01/08 11:57:44;;;;;;;18.08;12.25;;;;;;;;;;4974453;28;20378;-66
2023/01/08 12:00:12;;;;;;;24.05;12.27;;;;;;;;;;4974230;28;20061;-66
2023/01/08 12:03:00;;;;;;;18.20;12.85;;;;;;;;;;4974532;28;20069;-66
2023/01/08 12:05:35;;;;;;;17.75;11.48;;;;;;;;;;4973989;28;20081;-66
2023/01/08 12:08:05;;;;;;;16.73;10.32;;;;;;;;;;4974071;28;20118;-66
2023/01/08 12:10:36;;;;;;;13.20;8.98;;;;;;;;;;4973962;28;20077;-66
2023/01/08 12:13:13;;;;;;;16.70;9.80;;;;;;;;;;4973984;28;20121;-66
2023/01/08 12:15:50;;;;;;;16.38;9.25;;;;;;;;;;4972667;28;20130;-66
2023/01/08 12:18:32;;;;;;;14.57;9.35;;;;;;;;;;4965586;28;20098;-66
2023/01/08 12:21:06;;;;;;;15.95;9.60;;;;;;;;;;4954347;28;20094;-66
2023/01/08 12:23:33;;;;;;;12.98;8.80;;;;;;;;;;4954328;28;20036;-66
2023/01/08 12:26:23;;;;;;;15.57;9.90;;;;;;;;;;4954498;28;20067;-66
2023/01/08 12:28:51;;;;;;;13.25;9.35;;;;;;;;;;4963556;28;20047;-66
2023/01/08 12:31:19;;;;;;;16.20;9.95;;;;;;;;;;4958541;28;20047;-65
2023/01/08 12:33:54;;;;;;;14.27;9.75;;;;;;;;;;4957177;29;20044;-65
2023/01/08 12:36:28;;;;;;;15.82;10.05;;;;;;;;;;4965617;28;20070;-65
2023/01/08 12:39:28;;;;;;;16.45;10.68;;;;;;;;;;4976165;28;20057;-65
2023/01/08 12:42:05;;;;;;;16.67;10.43;;;;;;;;;;4955659;28;20403;-66
2023/01/08 12:44:33;;;;;;;15.20;10.43;;;;;;;;;;4977431;28;20035;-65
2023/01/08 12:47:02;;;;;;;18.55;11.60;;;;;;;;;;4975996;28;20074;-65
2023/01/08 12:49:37;;;;;;;16.67;12.45;;;;;;;;;;4977212;28;20102;-64
2023/01/08 12:52:11;;;;;;;21.15;13.05;;;;;;;;;;4977392;28;20050;-64
2023/01/08 12:54:38;;;;;;;19.63;12.55;;;;;;;;;;4977296;28;20097;-64
2023/01/08 12:57:15;;;;;;;20.75;13.93;;;;;;;;;;4977190;28;20050;-64
2023/01/08 12:59:46;;;;;;;26.67;15.77;;;;;;;;;;4975836;28;20059;-64
2023/01/08 13:02:20;;;;;;;19.90;11.90;;;;;;;;;;4971700;28;20501;-64
2023/01/08 13:04:48;;;;;;;25.67;16.90;;;;;;;;;;4962610;28;20051;-64
2023/01/08 13:07:18;;;;;;;26.83;16.80;;;;;;;;;;4958337;28;20043;-64
2023/01/08 13:09:45;;;;;;;29.10;17.20;;;;;;;;;;4957889;28;20720;-64
2023/01/08 13:12:14;;;;;;;22.88;15.50;;;;;;;;;;4957587;28;20082;-64
2023/01/08 13:14:43;;;;;;;22.98;14.70;;;;;;;;;;4957420;28;20120;-64
2023/01/08 13:17:17;;;;;;;24.20;15.02;;;;;;;;;;4957541;28;20047;-65
2023/01/08 13:19:50;;;;;;;29.42;18.48;;;;;;;;;;4957517;28;20507;-64
2023/01/08 13:22:28;;;;;;;25.00;16.08;;;;;;;;;;4953125;28;20075;-65
2023/01/08 13:25:14;;;;;;;23.42;15.45;;;;;;;;;;4938110;29;20040;-65
2023/01/08 13:27:42;;;;;;;25.17;17.88;;;;;;;;;;4941097;29;20099;-64
2023/01/08 13:30:28;;;;;;;32.50;20.88;;;;;;;;;;4944151;29;20043;-65
2023/01/08 13:32:57;;;;;;;29.05;19.88;;;;;;;;;;4956251;28;20126;-66
2023/01/08 13:35:33;;;;;;;22.75;15.05;;;;;;;;;;4955997;28;20086;-65
2023/01/08 13:38:07;;;;;;;31.40;19.30;;;;;;;;;;4953157;29;20071;-64
2023/01/08 13:40:44;;;;;;;20.38;13.85;;;;;;;;;;4954348;28;20035;-64
2023/01/08 13:43:30;;;;;;;24.63;15.48;;;;;;;;;;4955590;28;20051;-64
2023/01/08 13:46:01;;;;;;;36.10;19.85;;;;;;;;;;4956733;28;20059;-65
2023/01/08 13:48:39;;;;;;;25.98;16.17;;;;;;;;;;4956189;28;20047;-64
2023/01/08 13:51:24;;;;;;;34.42;19.38;;;;;;;;;;4951888;28;20050;-65
2023/01/08 13:53:52;;;;;;;22.07;14.87;;;;;;;;;;4944938;28;20489;-65
2023/01/08 13:56:20;;;;;;;32.90;19.00;;;;;;;;;;4937047;29;20048;-65
2023/01/08 13:58:52;;;;;;;30.42;18.98;;;;;;;;;;4950658;28;20053;-65
2023/01/08 14:01:22;;;;;;;31.35;18.95;;;;;;;;;;4953019;28;20043;-66
2023/01/08 14:03:49;;;;;;;24.52;15.20;;;;;;;;;;4955260;28;20031;-66
2023/01/08 14:06:19;;;;;;;27.20;16.80;;;;;;;;;;4952177;28;20123;-66
2023/01/08 14:08:50;;;;;;;38.33;22.20;;;;;;;;;;4937308;29;20052;-66
2023/01/08 14:11:18;;;;;;;39.67;22.00;;;;;;;;;;4936901;29;20389;-66
2023/01/08 14:13:45;;;;;;;70.07;31.58;;;;;;;;;;4936960;29;20047;-66
2023/01/08 14:16:14;;;;;;;84.18;33.30;;;;;;;;;;4952415;29;20047;-65
2023/01/08 14:18:45;;;;;;;43.50;22.92;;;;;;;;;;4953415;28;20031;-65
2023/01/08 14:21:13;;;;;;;38.03;22.40;;;;;;;;;;4952511;29;20051;-65
2023/01/08 14:23:44;;;;;;;40.45;25.98;;;;;;;;;;4952856;28;20039;-66
2023/01/08 14:26:19;;;;;;;44.17;28.73;;;;;;;;;;4954573;28;20043;-66
2023/01/08 14:28:53;;;;;;;35.58;21.13;;;;;;;;;;4954487;28;20039;-66
2023/01/08 14:31:22;;;;;;;35.08;22.15;;;;;;;;;;4952456;28;20047;-66
2023/01/08 14:33:50;;;;;;;34.72;22.77;;;;;;;;;;4952593;28;20036;-65